Time,TemperatureF,DewpointF,PressureIn,WindDirection,WindDirectionDegrees,WindSpeedMPH,WindSpeedGustMPH,Humidity,HourlyPrecipIn,Conditions,Clouds,dailyrainin,SoftwareType,DateUTC
2013-04-12 00:00:00,76.1,59.3,30.03,South,175,7.6,7.6,56,0.00,,---,0.00,VWS V14.01,2013-04-12 04:00:00,
2013-04-12 00:03:00,76.3,60.0,30.03,South,171,8.1,8.1,57,0.00,,---,0.00,VWS V14.01,2013-04-12 04:03:00,
2013-04-12 00:05:00,76.3,60.0,30.03,SSE,154,6.3,6.3,57,0.00,,---,0.00,VWS V14.01,2013-04-12 04:05:00,
2013-04-12 00:10:00,76.3,60.0,30.03,SSE,162,8.7,8.7,57,0.00,,---,0.00,VWS V14.01,2013-04-12 04:10:00,
2013-04-12 00:15:00,76.3,59.5,30.03,South,174,5.8,5.8,56,0.00,,---,0.00,VWS V14.01,2013-04-12 04:15:00,
2013-04-12 00:20:00,76.1,59.8,30.03,SE,143,5.8,7.6,57,0.00,,---,0.00,VWS V14.01,2013-04-12 04:20:00,
2013-04-12 00:25:00,76.3,58.9,30.03,SSE,159,5.4,8.3,55,0.00,,---,0.00,VWS V14.01,2013-04-12 04:25:00,
2013-04-12 00:30:00,76.3,59.5,30.03,SE,126,5.4,8.3,56,0.00,,---,0.00,VWS V14.01,2013-04-12 04:30:00,
2013-04-12 00:35:00,76.3,58.4,30.03,South,183,4.9,8.1,54,0.00,,---,0.00,VWS V14.01,2013-04-12 04:35:00,
2013-04-12 00:40:00,76.3,58.4,30.03,SE,132,5.8,8.1,54,0.00,,---,0.00,VWS V14.01,2013-04-12 04:40:00,
2013-04-12 00:45:00,76.3,57.9,30.03,SE,124,3.1,3.1,53,0.00,,---,0.00,VWS V14.01,2013-04-12 04:45:00,
2013-04-12 00:50:00,76.3,57.4,30.03,ESE,122,4.0,4.0,52,0.00,,---,0.00,VWS V14.01,2013-04-12 04:50:00,
2013-04-12 00:55:00,76.3,56.8,30.03,SE,139,5.4,9.6,51,0.00,,---,0.00,VWS V14.01,2013-04-12 04:55:00,
2013-04-12 01:00:00,76.5,57.0,30.03,ESE,119,6.3,6.3,51,0.00,,---,0.00,VWS V14.01,2013-04-12 05:00:00,
2013-04-12 01:06:00,76.5,55.9,30.03,SE,135,10.1,10.1,49,0.00,,---,0.00,VWS V14.01,2013-04-12 05:06:00,
2013-04-12 01:11:00,76.3,55.7,30.03,ESE,122,10.1,10.1,49,0.00,,---,0.00,VWS V14.01,2013-04-12 05:11:00,
2013-04-12 01:17:00,76.3,55.7,30.03,ESE,118,8.7,10.1,49,0.00,,---,0.00,VWS V14.01,2013-04-12 05:17:00,
2013-04-12 01:22:00,76.1,56.1,30.03,ESE,109,3.6,3.6,50,0.00,,---,0.00,VWS V14.01,2013-04-12 05:22:00,
2013-04-12 01:27:00,76.3,55.7,30.03,SE,124,3.1,3.1,49,0.00,,---,0.00,VWS V14.01,2013-04-12 05:27:00,
2013-04-12 01:32:00,76.3,55.7,30.03,ESE,119,7.6,7.6,49,0.00,,---,0.00,VWS V14.01,2013-04-12 05:32:00,
2013-04-12 01:37:00,76.5,55.3,30.03,SE,130,4.9,4.9,48,0.00,,---,0.00,VWS V14.01,2013-04-12 05:37:00,
2013-04-12 01:42:00,76.3,56.3,30.03,SE,129,4.0,6.3,50,0.00,,---,0.00,VWS V14.01,2013-04-12 05:42:00,
2013-04-12 01:47:00,76.3,56.3,30.03,SSE,149,3.1,5.8,50,0.00,,---,0.00,VWS V14.01,2013-04-12 05:47:00,
2013-04-12 01:53:00,76.3,56.3,30.03,South,181,4.0,5.4,50,0.00,,---,0.00,VWS V14.01,2013-04-12 05:53:00,
2013-04-12 01:58:00,76.1,56.7,30.03,SE,138,4.0,8.7,51,0.00,,---,0.00,VWS V14.01,2013-04-12 05:58:00,
2013-04-12 02:03:00,75.9,57.6,30.03,SSE,166,5.8,5.8,53,0.00,,---,0.00,VWS V14.01,2013-04-12 06:03:00,
2013-04-12 02:08:00,75.7,57.9,30.03,SE,130,4.9,4.9,54,0.00,,---,0.00,VWS V14.01,2013-04-12 06:08:00,
2013-04-12 02:13:00,75.6,58.3,30.03,SSE,150,7.6,7.6,55,0.00,,---,0.00,VWS V14.01,2013-04-12 06:13:00,
2013-04-12 02:19:00,75.7,57.9,30.03,SSE,153,3.1,3.1,54,0.00,,---,0.00,VWS V14.01,2013-04-12 06:19:00,
2013-04-12 02:24:00,75.7,57.9,30.03,SSE,147,5.4,5.4,54,0.00,,---,0.00,VWS V14.01,2013-04-12 06:24:00,
2013-04-12 02:29:00,75.6,58.3,30.03,SSE,165,6.3,6.3,55,0.00,,---,0.00,VWS V14.01,2013-04-12 06:29:00,
2013-04-12 02:34:00,75.6,58.8,30.03,ESE,117,3.1,5.4,56,0.00,,---,0.00,VWS V14.01,2013-04-12 06:34:00,
2013-04-12 02:39:00,75.7,57.9,30.03,SSE,155,3.6,3.6,54,0.00,,---,0.00,VWS V14.01,2013-04-12 06:39:00,
2013-04-12 02:44:00,75.7,57.4,30.03,ENE,75,6.3,6.3,53,0.00,,---,0.00,VWS V14.01,2013-04-12 06:44:00,
2013-04-12 02:49:00,75.9,57.0,30.03,SSE,147,3.1,3.1,52,0.00,,---,0.00,VWS V14.01,2013-04-12 06:49:00,
2013-04-12 02:54:00,75.9,57.0,30.03,SSE,162,0.0,0.0,52,0.00,,---,0.00,VWS V14.01,2013-04-12 06:54:00,
2013-04-12 03:00:00,76.1,57.2,30.03,SE,144,0.0,2.2,52,0.00,,---,0.00,VWS V14.01,2013-04-12 07:00:00,
2013-04-12 03:05:00,76.3,56.8,30.03,East,100,0.0,3.1,51,0.00,,---,0.00,VWS V14.01,2013-04-12 07:05:00,
2013-04-12 03:10:00,76.3,56.8,30.03,SE,144,0.0,0.0,51,0.00,,---,0.00,VWS V14.01,2013-04-12 07:10:00,
2013-04-12 03:15:00,76.3,56.8,30.03,SSE,152,0.0,0.0,51,0.00,,---,0.00,VWS V14.01,2013-04-12 07:15:00,
2013-04-12 03:20:00,76.3,57.4,30.03,SSE,152,2.2,2.2,52,0.00,,---,0.00,VWS V14.01,2013-04-12 07:20:00,
2013-04-12 03:25:00,76.3,57.9,30.03,SSE,155,3.6,3.6,53,0.00,,---,0.00,VWS V14.01,2013-04-12 07:25:00,
2013-04-12 03:30:00,76.3,57.9,30.03,ESE,121,4.5,4.5,53,0.00,,---,0.00,VWS V14.01,2013-04-12 07:30:00,
2013-04-12 03:36:00,76.3,57.9,30.03,ESE,117,4.0,5.8,53,0.00,,---,0.00,VWS V14.01,2013-04-12 07:36:00,
2013-04-12 03:41:00,76.5,57.0,30.03,SE,125,5.4,5.4,51,0.00,,---,0.00,VWS V14.01,2013-04-12 07:41:00,
2013-04-12 03:46:00,76.5,57.0,30.03,SE,137,5.8,5.8,51,0.00,,---,0.00,VWS V14.01,2013-04-12 07:46:00,
2013-04-12 03:51:00,76.6,56.6,30.03,SE,140,2.7,4.9,50,0.00,,---,0.00,VWS V14.01,2013-04-12 07:51:00,
2013-04-12 03:56:00,76.6,56.6,30.03,South,173,3.1,3.1,50,0.00,,---,0.00,VWS V14.01,2013-04-12 07:56:00,
2013-04-12 04:01:00,76.5,57.0,30.03,SSW,211,3.6,3.6,51,0.00,,---,0.00,VWS V14.01,2013-04-12 08:01:00,
2013-04-12 04:06:00,76.3,57.4,30.03,South,187,2.7,2.7,52,0.00,,---,0.00,VWS V14.01,2013-04-12 08:06:00,
2013-04-12 04:11:00,76.3,57.9,30.03,South,178,5.8,5.8,53,0.00,,---,0.00,VWS V14.01,2013-04-12 08:11:00,
2013-04-12 04:16:00,76.5,57.0,30.03,SE,132,5.4,7.6,51,0.00,,---,0.00,VWS V14.01,2013-04-12 08:16:00,
2013-04-12 04:21:00,76.6,56.6,30.03,SSE,156,3.1,3.1,50,0.00,,---,0.00,VWS V14.01,2013-04-12 08:21:00,
2013-04-12 04:26:00,76.5,56.5,30.03,South,189,5.8,5.8,50,0.00,,---,0.00,VWS V14.01,2013-04-12 08:26:00,
2013-04-12 04:31:00,76.5,56.5,30.03,SSE,163,5.8,5.8,50,0.00,,---,0.00,VWS V14.01,2013-04-12 08:31:00,
2013-04-12 04:36:00,76.5,56.5,30.03,SSE,151,6.3,6.3,50,0.00,,---,0.00,VWS V14.01,2013-04-12 08:36:00,
2013-04-12 04:41:00,76.3,56.8,30.00,SSE,163,3.6,3.6,51,0.00,,---,0.00,VWS V14.01,2013-04-12 08:41:00,
2013-04-12 04:47:00,76.3,56.8,30.00,SE,142,6.3,12.3,51,0.00,,---,0.00,VWS V14.01,2013-04-12 08:47:00,
2013-04-12 04:52:00,76.5,57.0,30.03,SE,146,2.7,5.4,51,0.00,,---,0.00,VWS V14.01,2013-04-12 08:52:00,
2013-04-12 04:57:00,76.3,57.9,30.03,SE,142,2.7,4.9,53,0.00,,---,0.00,VWS V14.01,2013-04-12 08:57:00,
2013-04-12 05:02:00,76.1,58.3,30.03,SE,146,6.3,6.3,54,0.00,,---,0.00,VWS V14.01,2013-04-12 09:02:00,
2013-04-12 05:07:00,76.1,58.3,30.03,ESE,116,4.9,4.9,54,0.00,,---,0.00,VWS V14.01,2013-04-12 09:07:00,
2013-04-12 05:12:00,76.3,58.4,30.03,South,188,2.7,3.6,54,0.00,,---,0.00,VWS V14.01,2013-04-12 09:12:00,
2013-04-12 05:17:00,76.3,58.4,30.03,SSE,156,0.0,0.0,54,0.00,,---,0.00,VWS V14.01,2013-04-12 09:17:00,
2013-04-12 05:22:00,76.3,58.9,30.03,South,173,0.0,4.0,55,0.00,,---,0.00,VWS V14.01,2013-04-12 09:22:00,
2013-04-12 05:28:00,76.3,58.9,30.03,SSE,154,0.0,0.0,55,0.00,,---,0.00,VWS V14.01,2013-04-12 09:28:00,
2013-04-12 05:33:00,76.1,59.8,30.03,SSE,162,0.0,2.7,57,0.00,,---,0.00,VWS V14.01,2013-04-12 09:33:00,
2013-04-12 05:38:00,75.7,60.4,30.03,SE,137,0.0,0.0,59,0.00,,---,0.00,VWS V14.01,2013-04-12 09:38:00,
2013-04-12 05:43:00,75.7,61.3,30.03,SSE,149,2.7,4.0,61,0.00,,---,0.00,VWS V14.01,2013-04-12 09:43:00,
2013-04-12 05:49:00,75.7,61.3,30.03,SSE,147,3.1,3.1,61,0.00,,---,0.00,VWS V14.01,2013-04-12 09:49:00,
2013-04-12 05:54:00,75.7,61.3,30.03,SSE,159,4.9,5.4,61,0.00,,---,0.00,VWS V14.01,2013-04-12 09:54:00,
2013-04-12 05:59:00,75.6,62.5,30.03,SE,132,2.7,3.6,64,0.00,,---,0.00,VWS V14.01,2013-04-12 09:59:00,
2013-04-12 06:05:00,75.4,62.8,30.03,SE,143,3.6,3.6,65,0.00,,---,0.00,VWS V14.01,2013-04-12 10:05:00,
2013-04-12 06:10:00,75.4,62.8,30.03,ESE,114,3.6,3.6,65,0.00,,---,0.00,VWS V14.01,2013-04-12 10:10:00,
2013-04-12 06:15:00,75.2,63.5,30.03,SE,124,4.9,4.9,67,0.00,,---,0.00,VWS V14.01,2013-04-12 10:15:00,
2013-04-12 06:20:00,75.2,63.5,30.03,NE,49,2.7,3.6,67,0.00,,---,0.00,VWS V14.01,2013-04-12 10:20:00,
2013-04-12 06:26:00,75.4,63.7,30.03,SE,145,2.7,4.0,67,0.00,,---,0.00,VWS V14.01,2013-04-12 10:26:00,
2013-04-12 06:31:00,75.2,63.5,30.03,ESE,110,2.2,2.2,67,0.00,,---,0.00,VWS V14.01,2013-04-12 10:31:00,
2013-04-12 06:36:00,75.2,64.3,30.03,SE,126,2.2,2.2,69,0.00,,---,0.00,VWS V14.01,2013-04-12 10:36:00,
2013-04-12 06:41:00,75.2,64.3,30.03,SE,133,3.1,3.1,69,0.00,,---,0.00,VWS V14.01,2013-04-12 10:41:00,
2013-04-12 06:46:00,75.2,64.3,30.03,SE,141,0.0,2.7,69,0.00,,---,0.00,VWS V14.01,2013-04-12 10:46:00,
2013-04-12 06:51:00,75.4,64.5,30.03,SE,142,3.6,3.6,69,0.00,,---,0.00,VWS V14.01,2013-04-12 10:51:00,
2013-04-12 06:56:00,75.6,64.3,30.03,SE,139,5.4,5.4,68,0.00,,---,0.00,VWS V14.01,2013-04-12 10:56:00,
2013-04-12 07:02:00,75.6,63.8,30.06,ESE,115,3.1,3.1,67,0.00,,---,0.00,VWS V14.01,2013-04-12 11:02:00,
2013-04-12 07:07:00,75.6,63.8,30.06,ESE,122,3.6,3.6,67,0.00,,---,0.00,VWS V14.01,2013-04-12 11:07:00,
2013-04-12 07:12:00,75.4,64.1,30.06,SSE,158,2.7,3.6,68,0.00,,---,0.00,VWS V14.01,2013-04-12 11:12:00,
2013-04-12 07:17:00,75.6,64.3,30.06,SSE,149,3.6,3.6,68,0.00,,---,0.00,VWS V14.01,2013-04-12 11:17:00,
2013-04-12 07:22:00,75.6,64.3,30.06,SSE,165,3.1,3.1,68,0.00,,---,0.00,VWS V14.01,2013-04-12 11:22:00,
2013-04-12 07:27:00,75.9,64.2,30.06,ESE,110,3.6,3.6,67,0.00,,---,0.00,VWS V14.01,2013-04-12 11:27:00,
2013-04-12 07:33:00,75.9,64.2,30.06,SE,127,3.1,6.3,67,0.00,,---,0.00,VWS V14.01,2013-04-12 11:33:00,
2013-04-12 07:38:00,77.0,61.6,30.06,South,174,3.1,3.1,59,0.00,,---,0.00,VWS V14.01,2013-04-12 11:38:00,
2013-04-12 07:43:00,77.2,60.8,30.06,ESE,109,3.1,3.1,57,0.00,,---,0.00,VWS V14.01,2013-04-12 11:43:00,
2013-04-12 07:48:00,77.7,59.2,30.06,SSE,160,2.7,2.7,53,0.00,,---,0.00,VWS V14.01,2013-04-12 11:48:00,
2013-04-12 07:53:00,78.3,58.1,30.06,SE,128,3.6,3.6,50,0.00,,---,0.00,VWS V14.01,2013-04-12 11:53:00,
2013-04-12 07:59:00,78.6,57.9,30.06,SSW,198,2.7,5.4,49,0.00,,---,0.00,VWS V14.01,2013-04-12 11:59:00,
2013-04-12 08:04:00,79.0,57.0,30.06,SSE,149,4.0,4.0,47,0.00,,---,0.00,VWS V14.01,2013-04-12 12:04:00,
2013-04-12 08:09:00,79.0,57.0,30.06,SSE,151,6.3,8.1,47,0.00,,---,0.00,VWS V14.01,2013-04-12 12:09:00,
2013-04-12 08:15:00,79.5,56.3,30.06,SE,144,2.7,2.7,45,0.00,,---,0.00,VWS V14.01,2013-04-12 12:15:00,
2013-04-12 08:20:00,79.5,56.3,30.06,SSW,204,5.4,5.4,45,0.00,,---,0.00,VWS V14.01,2013-04-12 12:20:00,
2013-04-12 08:25:00,79.7,55.9,30.06,SSE,148,5.4,5.4,44,0.00,,---,0.00,VWS V14.01,2013-04-12 12:25:00,
2013-04-12 08:30:00,79.9,56.0,30.06,SE,144,4.0,4.0,44,0.00,,---,0.00,VWS V14.01,2013-04-12 12:30:00,
2013-04-12 08:35:00,79.9,56.0,30.06,SSW,196,2.7,3.1,44,0.00,,---,0.00,VWS V14.01,2013-04-12 12:35:00,
2013-04-12 08:41:00,80.2,56.4,30.06,SSE,156,0.0,0.0,44,0.00,,---,0.00,VWS V14.01,2013-04-12 12:41:00,
2013-04-12 08:46:00,80.4,55.9,30.06,SE,128,3.1,4.0,43,0.00,,---,0.00,VWS V14.01,2013-04-12 12:46:00,
2013-04-12 08:51:00,80.8,54.9,30.06,South,183,5.8,5.8,41,0.00,,---,0.00,VWS V14.01,2013-04-12 12:51:00,
2013-04-12 08:56:00,81.0,55.1,30.06,SE,127,5.4,5.8,41,0.00,,---,0.00,VWS V14.01,2013-04-12 12:56:00,
2013-04-12 09:02:00,82.2,55.5,30.06,SSE,158,2.7,2.7,40,0.00,,---,0.00,VWS V14.01,2013-04-12 13:02:00,
2013-04-12 09:07:00,82.6,55.1,30.06,SSE,155,4.9,4.9,39,0.00,,---,0.00,VWS V14.01,2013-04-12 13:07:00,
2013-04-12 09:12:00,83.1,53.4,30.06,SSW,200,0.0,0.0,36,0.00,,---,0.00,VWS V14.01,2013-04-12 13:12:00,
2013-04-12 09:17:00,82.8,53.1,30.06,South,180,3.6,4.9,36,0.00,,---,0.00,VWS V14.01,2013-04-12 13:17:00,
2013-04-12 09:23:00,83.1,53.4,30.06,SSE,163,4.9,5.8,36,0.00,,---,0.00,VWS V14.01,2013-04-12 13:23:00,
2013-04-12 09:28:00,83.3,53.6,30.06,SSE,157,3.6,3.6,36,0.00,,---,0.00,VWS V14.01,2013-04-12 13:28:00,
2013-04-12 09:33:00,82.8,52.3,30.06,South,187,5.8,5.8,35,0.00,,---,0.00,VWS V14.01,2013-04-12 13:33:00,
2013-04-12 09:38:00,82.8,53.1,30.06,South,179,3.6,5.8,36,0.00,,---,0.00,VWS V14.01,2013-04-12 13:38:00,
2013-04-12 09:43:00,82.9,52.5,30.06,South,183,5.4,5.4,35,0.00,,---,0.00,VWS V14.01,2013-04-12 13:43:00,
2013-04-12 09:48:00,83.7,53.9,30.06,SSE,163,3.6,3.6,36,0.00,,---,0.00,VWS V14.01,2013-04-12 13:48:00,
2013-04-12 09:53:00,84.7,54.1,30.06,SSE,150,6.3,6.3,35,0.00,,---,0.00,VWS V14.01,2013-04-12 13:53:00,
2013-04-12 09:58:00,85.6,51.6,30.06,South,184,4.9,4.9,31,0.00,,---,0.00,VWS V14.01,2013-04-12 13:58:00,
2013-04-12 10:04:00,84.7,51.6,30.06,South,181,8.1,8.1,32,0.00,,---,0.00,VWS V14.01,2013-04-12 14:04:00,
2013-04-12 10:09:00,84.0,52.7,30.06,SSE,156,5.8,5.8,34,0.00,,---,0.00,VWS V14.01,2013-04-12 14:09:00,
2013-04-12 10:14:00,88.0,50.8,30.06,South,175,5.4,5.4,28,0.00,,---,0.00,VWS V14.01,2013-04-12 14:14:00,
2013-04-12 10:19:00,88.5,51.3,30.06,ESE,112,5.4,5.4,28,0.00,,---,0.00,VWS V14.01,2013-04-12 14:19:00,
2013-04-12 10:24:00,92.8,47.2,30.06,ESE,110,5.4,5.4,21,0.00,,---,0.00,VWS V14.01,2013-04-12 14:24:00,
2013-04-12 10:30:00,93.7,48.0,30.06,ESE,108,4.0,4.0,21,0.00,,---,0.00,VWS V14.01,2013-04-12 14:30:00,
2013-04-12 10:35:00,93.7,48.0,30.06,SW,214,8.7,8.7,21,0.00,,---,0.00,VWS V14.01,2013-04-12 14:35:00,
2013-04-12 10:40:00,91.2,47.1,30.06,SSW,211,5.4,8.1,22,0.00,,---,0.00,VWS V14.01,2013-04-12 14:40:00,
2013-04-12 10:45:00,91.2,49.4,30.06,SSE,152,6.3,6.3,24,0.00,,---,0.00,VWS V14.01,2013-04-12 14:45:00,
2013-04-12 10:50:00,91.4,48.4,30.06,ESE,116,4.0,4.0,23,0.00,,---,0.00,VWS V14.01,2013-04-12 14:50:00,
2013-04-12 10:55:00,93.9,46.8,30.06,South,176,3.6,5.4,20,0.00,,---,0.00,VWS V14.01,2013-04-12 14:55:00,
2013-04-12 11:01:00,88.9,50.6,30.06,ESE,112,4.0,8.1,27,0.00,,---,0.00,VWS V14.01,2013-04-12 15:01:00,
2013-04-12 11:06:00,87.4,51.3,30.06,SE,140,3.1,4.0,29,0.00,,---,0.00,VWS V14.01,2013-04-12 15:06:00,
2013-04-12 11:11:00,89.4,51.1,30.06,SE,139,4.9,8.3,27,0.00,,---,0.00,VWS V14.01,2013-04-12 15:11:00,
2013-04-12 11:16:00,93.2,48.7,30.06,South,181,6.3,6.3,22,0.00,,---,0.00,VWS V14.01,2013-04-12 15:16:00,
2013-04-12 11:21:00,94.5,48.5,30.06,ESE,118,5.8,5.8,21,0.00,,---,0.00,VWS V14.01,2013-04-12 15:21:00,
2013-04-12 11:26:00,94.8,44.8,30.06,ESE,104,6.3,6.3,18,0.00,,---,0.00,VWS V14.01,2013-04-12 15:26:00,
2013-04-12 11:31:00,95.7,46.9,30.06,SW,222,3.6,3.6,19,0.00,,---,0.00,VWS V14.01,2013-04-12 15:31:00,
2013-04-12 11:37:00,93.7,46.7,30.06,SE,141,4.0,4.0,20,0.00,,---,0.00,VWS V14.01,2013-04-12 15:37:00,
2013-04-12 11:42:00,92.7,47.1,30.06,ESE,113,8.7,8.7,21,0.00,,---,0.00,VWS V14.01,2013-04-12 15:42:00,
2013-04-12 11:47:00,96.3,45.9,30.06,South,170,7.2,7.2,18,0.00,,---,0.00,VWS V14.01,2013-04-12 15:47:00,
2013-04-12 11:52:00,97.3,45.3,30.06,SW,217,5.4,5.4,17,0.00,,---,0.00,VWS V14.01,2013-04-12 15:52:00,
2013-04-12 11:57:00,94.6,44.6,30.06,South,176,4.0,4.0,18,0.00,,---,0.00,VWS V14.01,2013-04-12 15:57:00,
2013-04-12 12:03:00,91.8,46.3,30.06,ESE,116,8.3,9.6,21,0.00,,---,0.00,VWS V14.01,2013-04-12 16:03:00,
2013-04-12 12:08:00,90.3,48.7,30.06,SE,124,5.4,5.4,24,0.00,,---,0.00,VWS V14.01,2013-04-12 16:08:00,
2013-04-12 12:13:00,90.3,48.7,30.06,SSE,164,6.3,8.7,24,0.00,,---,0.00,VWS V14.01,2013-04-12 16:13:00,
2013-04-12 12:18:00,89.2,47.8,30.06,SSE,162,3.6,5.8,24,0.00,,---,0.00,VWS V14.01,2013-04-12 16:18:00,
2013-04-12 12:23:00,88.0,50.8,30.06,West,270,4.0,6.3,28,0.00,,---,0.00,VWS V14.01,2013-04-12 16:23:00,
2013-04-12 12:28:00,86.0,51.0,30.06,South,174,5.4,5.4,30,0.00,,---,0.00,VWS V14.01,2013-04-12 16:28:00,
2013-04-12 12:33:00,88.2,51.9,30.06,South,186,5.8,5.8,29,0.00,,---,0.00,VWS V14.01,2013-04-12 16:33:00,
2013-04-12 12:39:00,91.8,49.9,30.06,South,175,3.1,3.1,24,0.00,,---,0.00,VWS V14.01,2013-04-12 16:39:00,
2013-04-12 12:44:00,98.1,47.4,30.06,SE,135,2.7,2.7,18,0.00,,---,0.00,VWS V14.01,2013-04-12 16:44:00,
2013-04-12 12:49:00,95.2,46.5,30.06,East,85,0.0,0.0,19,0.00,,---,0.00,VWS V14.01,2013-04-12 16:49:00,
2013-04-12 12:54:00,95.4,49.3,30.06,South,184,6.3,10.5,21,0.00,,---,0.00,VWS V14.01,2013-04-12 16:54:00,
2013-04-12 12:59:00,97.5,46.9,30.06,WSW,258,3.1,5.4,18,0.00,,---,0.00,VWS V14.01,2013-04-12 16:59:00,
2013-04-12 13:05:00,99.5,47.0,30.06,ESE,109,3.6,3.6,17,0.00,,---,0.00,VWS V14.01,2013-04-12 17:05:00,
2013-04-12 13:10:00,95.0,43.4,30.03,SE,142,4.0,5.4,17,0.00,,---,0.00,VWS V14.01,2013-04-12 17:10:00,
2013-04-12 13:15:00,96.6,46.2,30.03,SE,136,3.1,6.3,18,0.00,,---,0.00,VWS V14.01,2013-04-12 17:15:00,
2013-04-12 13:21:00,96.6,46.2,30.03,SE,126,5.4,8.3,18,0.00,,---,0.00,VWS V14.01,2013-04-12 17:21:00,
2013-04-12 13:26:00,96.6,46.2,30.03,ESE,104,6.7,6.7,18,0.00,,---,0.00,VWS V14.01,2013-04-12 17:26:00,
2013-04-12 13:31:00,93.4,45.0,30.03,South,175,4.0,8.7,19,0.00,,---,0.00,VWS V14.01,2013-04-12 17:31:00,
2013-04-12 13:36:00,90.3,46.3,30.03,ESE,106,4.0,4.9,22,0.00,,---,0.00,VWS V14.01,2013-04-12 17:36:00,
2013-04-12 13:41:00,92.3,48.0,30.03,SSW,203,5.8,8.1,22,0.00,,---,0.00,VWS V14.01,2013-04-12 17:41:00,
2013-04-12 13:46:00,96.3,45.9,30.03,SSE,161,3.6,3.6,18,0.00,,---,0.00,VWS V14.01,2013-04-12 17:46:00,
2013-04-12 13:52:00,91.6,46.2,30.03,SW,227,2.2,2.2,21,0.00,,---,0.00,VWS V14.01,2013-04-12 17:52:00,
2013-04-12 13:57:00,90.1,47.4,30.03,SSW,207,8.3,8.3,23,0.00,,---,0.00,VWS V14.01,2013-04-12 17:57:00,
2013-04-12 14:02:00,93.7,46.7,30.03,SSW,205,4.0,4.0,20,0.00,,---,0.00,VWS V14.01,2013-04-12 18:02:00,
2013-04-12 14:07:00,96.4,47.5,30.03,SE,140,0.0,0.0,19,0.00,,---,0.00,VWS V14.01,2013-04-12 18:07:00,
2013-04-12 14:12:00,96.4,47.5,30.03,SE,141,3.6,3.6,19,0.00,,---,0.00,VWS V14.01,2013-04-12 18:12:00,
2013-04-12 14:19:00,93.6,43.7,30.03,South,175,3.1,4.5,18,0.00,,---,0.00,VWS V14.01,2013-04-12 18:19:00,
2013-04-12 14:24:00,91.6,46.2,30.03,West,274,0.0,2.2,21,0.00,,---,0.00,VWS V14.01,2013-04-12 18:24:00,
2013-04-12 14:29:00,90.7,52.1,30.03,WSW,257,0.0,2.7,27,0.00,,---,0.00,VWS V14.01,2013-04-12 18:29:00,
2013-04-12 15:26:00,86.0,51.9,30.00,SE,135,0.0,2.7,31,0.00,,---,0.00,VWS V14.01,2013-04-12 19:26:00,
2013-04-12 15:27:00,85.5,53.9,30.00,SE,130,2.2,2.2,34,0.00,,---,0.00,VWS V14.01,2013-04-12 19:27:00,
2013-04-12 15:32:00,82.6,58.5,30.00,ESE,117,4.0,4.0,44,0.04,,---,0.04,VWS V14.01,2013-04-12 19:32:00,
2013-04-12 15:38:00,82.6,58.5,30.00,SE,130,4.5,4.5,44,0.04,,---,0.04,VWS V14.01,2013-04-12 19:38:00,
2013-04-12 15:43:00,77.9,66.5,30.00,SE,131,8.1,9.6,68,0.08,,---,0.08,VWS V14.01,2013-04-12 19:43:00,
2013-04-12 15:48:00,77.0,70.0,30.00,ESE,111,4.5,4.5,79,0.12,,---,0.12,VWS V14.01,2013-04-12 19:48:00,
2013-04-12 15:53:00,75.7,68.4,30.00,South,176,11.9,11.9,78,0.12,,---,0.12,VWS V14.01,2013-04-12 19:53:00,
2013-04-12 15:58:00,75.9,69.3,30.00,ESE,115,7.2,9.6,80,0.12,,---,0.12,VWS V14.01,2013-04-12 19:58:00,
2013-04-12 16:03:00,74.8,68.6,30.00,NE,44,8.3,12.3,81,0.51,,---,0.51,VWS V14.01,2013-04-12 20:03:00,
2013-04-12 16:09:00,74.7,68.4,30.00,SSE,149,3.6,3.6,81,0.51,,---,0.51,VWS V14.01,2013-04-12 20:09:00,
2013-04-12 16:14:00,75.0,68.4,30.00,NE,56,5.4,5.8,80,0.51,,---,0.51,VWS V14.01,2013-04-12 20:14:00,
2013-04-12 16:19:00,74.1,66.8,30.00,SSE,168,3.1,3.1,78,0.51,,---,0.51,VWS V14.01,2013-04-12 20:19:00,
2013-04-12 16:24:00,74.3,67.0,30.00,ESE,109,0.0,2.2,78,0.51,,---,0.51,VWS V14.01,2013-04-12 20:24:00,
2013-04-12 16:29:00,73.9,67.4,30.00,ENE,69,3.1,3.1,80,0.51,,---,0.51,VWS V14.01,2013-04-12 20:29:00,
2013-04-12 16:35:00,73.6,67.0,30.00,NE,46,4.0,4.0,80,0.59,,---,0.63,VWS V14.01,2013-04-12 20:35:00,
2013-04-12 16:40:00,72.1,63.0,30.00,ENE,77,5.8,5.8,73,0.59,,---,0.63,VWS V14.01,2013-04-12 20:40:00,
2013-04-12 16:45:00,72.3,62.0,30.00,ENE,72,3.6,3.6,70,0.55,,---,0.63,VWS V14.01,2013-04-12 20:45:00,
2013-04-12 16:50:00,73.0,64.3,30.00,East,81,3.6,3.6,74,0.51,,---,0.63,VWS V14.01,2013-04-12 20:50:00,
2013-04-12 16:55:00,74.5,64.9,30.00,ESE,112,0.0,0.0,72,0.51,,---,0.63,VWS V14.01,2013-04-12 20:55:00,
2013-04-12 17:01:00,75.2,64.3,30.00,ESE,112,0.0,0.0,69,0.12,,---,0.63,VWS V14.01,2013-04-12 21:01:00,
2013-04-12 17:06:00,75.7,66.1,30.00,ESE,112,0.0,0.0,72,0.12,,---,0.63,VWS V14.01,2013-04-12 21:06:00,
2013-04-12 17:11:00,75.9,66.7,30.00,ESE,112,0.0,0.0,73,0.12,,---,0.63,VWS V14.01,2013-04-12 21:11:00,
2013-04-12 17:17:00,76.5,67.9,30.00,West,275,3.6,3.6,75,0.12,,---,0.63,VWS V14.01,2013-04-12 21:17:00,
2013-04-12 17:22:00,76.1,66.8,30.00,West,280,0.0,0.0,73,0.12,,---,0.63,VWS V14.01,2013-04-12 21:22:00,
2013-04-12 17:27:00,75.9,66.7,30.00,West,280,0.0,0.0,73,0.12,,---,0.63,VWS V14.01,2013-04-12 21:27:00,
2013-04-12 17:32:00,76.3,68.2,29.97,West,280,0.0,0.0,76,0.00,,---,0.63,VWS V14.01,2013-04-12 21:32:00,
2013-04-12 17:37:00,76.3,68.2,30.00,West,280,0.0,0.0,76,0.00,,---,0.63,VWS V14.01,2013-04-12 21:37:00,
2013-04-12 17:42:00,77.4,70.0,30.00,West,280,0.0,0.0,78,0.00,,---,0.63,VWS V14.01,2013-04-12 21:42:00,
2013-04-12 17:47:00,78.1,69.9,30.00,South,172,0.0,2.7,76,0.00,,---,0.63,VWS V14.01,2013-04-12 21:47:00,
2013-04-12 17:52:00,79.0,69.6,30.00,ESE,114,0.0,0.0,73,0.00,,---,0.63,VWS V14.01,2013-04-12 21:52:00,
2013-04-12 17:58:00,79.9,69.6,29.97,East,80,0.0,0.0,71,0.00,,---,0.63,VWS V14.01,2013-04-12 21:58:00,
2013-04-12 18:03:00,80.2,70.0,29.97,SE,138,2.7,2.7,71,0.00,,---,0.63,VWS V14.01,2013-04-12 22:03:00,
2013-04-12 18:08:00,80.6,61.4,30.00,South,178,4.0,4.0,52,0.00,,---,0.63,VWS V14.01,2013-04-12 22:08:00,
2013-04-12 18:13:00,80.6,58.5,30.00,South,185,7.6,7.6,47,0.00,,---,0.63,VWS V14.01,2013-04-12 22:13:00,
2013-04-12 18:18:00,80.4,57.8,30.00,SSW,212,2.7,2.7,46,0.00,,---,0.63,VWS V14.01,2013-04-12 22:18:00,
2013-04-12 18:23:00,80.4,57.8,30.00,ESE,120,6.3,6.3,46,0.00,,---,0.63,VWS V14.01,2013-04-12 22:23:00,
2013-04-12 18:29:00,80.6,56.7,30.00,SSE,155,2.7,5.8,44,0.00,,---,0.63,VWS V14.01,2013-04-12 22:29:00,
2013-04-12 18:34:00,80.4,55.9,30.00,South,181,3.6,3.6,43,0.00,,---,0.63,VWS V14.01,2013-04-12 22:34:00,
2013-04-12 18:39:00,80.4,55.2,30.00,North,0,3.6,3.6,42,0.00,,---,0.63,VWS V14.01,2013-04-12 22:39:00,
2013-04-12 18:44:00,80.8,54.9,30.00,WSW,252,0.0,4.9,41,0.00,,---,0.63,VWS V14.01,2013-04-12 22:44:00,
2013-04-12 18:49:00,81.0,55.1,30.00,SE,145,0.0,3.1,41,0.00,,---,0.63,VWS V14.01,2013-04-12 22:49:00,
2013-04-12 18:54:00,81.0,55.1,30.00,South,171,3.6,3.6,41,0.00,,---,0.63,VWS V14.01,2013-04-12 22:54:00,
2013-04-12 18:59:00,81.3,54.7,30.00,South,178,3.1,3.1,40,0.00,,---,0.63,VWS V14.01,2013-04-12 22:59:00,
2013-04-12 19:04:00,81.1,54.5,30.00,South,176,0.0,0.0,40,0.00,,---,0.63,VWS V14.01,2013-04-12 23:04:00,
2013-04-12 19:09:00,81.1,54.5,30.00,South,190,4.0,4.0,40,0.00,,---,0.63,VWS V14.01,2013-04-12 23:09:00,
2013-04-12 19:14:00,80.2,54.4,30.00,SSW,195,2.2,2.2,41,0.00,,---,0.63,VWS V14.01,2013-04-12 23:14:00,
2013-04-12 19:19:00,80.4,53.9,30.00,SSE,168,3.1,3.1,40,0.00,,---,0.63,VWS V14.01,2013-04-12 23:19:00,
2013-04-12 19:24:00,80.2,53.8,30.00,South,185,4.0,4.0,40,0.00,,---,0.63,VWS V14.01,2013-04-12 23:24:00,
2013-04-12 19:29:00,80.2,53.8,30.00,SSW,192,4.9,4.9,40,0.00,,---,0.63,VWS V14.01,2013-04-12 23:29:00,
2013-04-12 19:34:00,80.2,53.8,30.00,SSE,155,2.2,4.9,40,0.00,,---,0.63,VWS V14.01,2013-04-12 23:34:00,
2013-04-12 19:39:00,79.7,54.6,30.03,SSE,149,0.0,4.0,42,0.00,,---,0.63,VWS V14.01,2013-04-12 23:39:00,
2013-04-12 19:44:00,79.3,55.6,30.03,SSE,162,0.0,0.0,44,0.00,,---,0.63,VWS V14.01,2013-04-12 23:44:00,
2013-04-12 19:49:00,79.0,55.2,30.03,SSE,159,2.2,2.2,44,0.00,,---,0.63,VWS V14.01,2013-04-12 23:49:00,
2013-04-12 19:54:00,78.8,55.1,30.03,East,93,2.7,2.7,44,0.00,,---,0.63,VWS V14.01,2013-04-12 23:54:00,
2013-04-12 20:00:00,78.6,56.1,30.03,South,176,2.2,5.4,46,0.00,,---,0.63,VWS V14.01,2013-04-13 00:00:00,
2013-04-12 20:05:00,78.3,56.4,30.03,SSE,157,0.0,2.7,47,0.00,,---,0.63,VWS V14.01,2013-04-13 00:05:00,
2013-04-12 20:10:00,77.9,57.2,30.03,South,179,3.1,3.1,49,0.00,,---,0.63,VWS V14.01,2013-04-13 00:10:00,
2013-04-12 20:15:00,77.7,57.1,30.03,SE,135,3.6,3.6,49,0.00,,---,0.63,VWS V14.01,2013-04-13 00:15:00,
2013-04-12 20:20:00,77.7,57.6,30.03,SSE,152,0.0,2.7,50,0.00,,---,0.63,VWS V14.01,2013-04-13 00:20:00,
2013-04-12 20:25:00,77.7,57.6,30.03,SSW,203,2.7,2.7,50,0.00,,---,0.63,VWS V14.01,2013-04-13 00:25:00,
2013-04-12 20:30:00,77.5,57.5,30.03,SSE,151,0.0,0.0,50,0.00,,---,0.63,VWS V14.01,2013-04-13 00:30:00,
2013-04-12 20:36:00,77.7,57.1,30.03,SE,146,0.0,0.0,49,0.00,,---,0.63,VWS V14.01,2013-04-13 00:36:00,
2013-04-12 20:41:00,77.7,57.1,30.03,SSE,166,3.1,3.1,49,0.00,,---,0.63,VWS V14.01,2013-04-13 00:41:00,
2013-04-12 20:46:00,77.7,57.1,30.03,SE,138,0.0,2.7,49,0.00,,---,0.63,VWS V14.01,2013-04-13 00:46:00,
2013-04-12 20:51:00,77.7,57.6,30.03,SSE,149,2.7,2.7,50,0.00,,---,0.63,VWS V14.01,2013-04-13 00:51:00,
2013-04-12 20:56:00,77.4,58.4,30.03,SSE,154,0.0,0.0,52,0.00,,---,0.63,VWS V14.01,2013-04-13 00:56:00,
2013-04-12 21:02:00,77.4,58.9,30.03,South,184,0.0,3.1,53,0.00,,---,0.63,VWS V14.01,2013-04-13 01:02:00,
2013-04-12 21:07:00,77.2,59.3,30.03,SSE,162,2.2,2.7,54,0.00,,---,0.63,VWS V14.01,2013-04-13 01:07:00,
2013-04-12 21:12:00,77.2,59.3,30.03,SSE,156,4.0,4.0,54,0.00,,---,0.63,VWS V14.01,2013-04-13 01:12:00,
2013-04-12 21:17:00,77.4,58.9,30.03,SSE,166,0.0,0.0,53,0.00,,---,0.63,VWS V14.01,2013-04-13 01:17:00,
2013-04-12 21:22:00,77.2,58.7,30.06,SE,139,0.0,0.0,53,0.00,,---,0.63,VWS V14.01,2013-04-13 01:22:00,
2013-04-12 21:28:00,77.2,59.8,30.06,SSE,163,0.0,0.0,55,0.00,,---,0.63,VWS V14.01,2013-04-13 01:28:00,
2013-04-12 21:33:00,77.2,59.8,30.06,South,177,0.0,0.0,55,0.00,,---,0.63,VWS V14.01,2013-04-13 01:33:00,
2013-04-12 21:38:00,77.0,60.6,30.06,South,177,0.0,0.0,57,0.00,,---,0.63,VWS V14.01,2013-04-13 01:38:00,
2013-04-12 21:43:00,76.6,60.3,30.06,South,177,0.0,0.0,57,0.00,,---,0.63,VWS V14.01,2013-04-13 01:43:00,
2013-04-12 21:48:00,76.6,60.8,30.06,SSW,200,0.0,0.0,58,0.00,,---,0.63,VWS V14.01,2013-04-13 01:48:00,
2013-04-12 21:53:00,76.6,60.8,30.06,SSE,156,0.0,0.0,58,0.00,,---,0.63,VWS V14.01,2013-04-13 01:53:00,
2013-04-12 21:58:00,76.5,61.1,30.06,SSW,207,0.0,0.0,59,0.00,,---,0.63,VWS V14.01,2013-04-13 01:58:00,
2013-04-12 22:04:00,76.5,61.6,30.06,SSW,207,0.0,0.0,60,0.00,,---,0.63,VWS V14.01,2013-04-13 02:04:00,
2013-04-12 22:09:00,75.9,62.0,30.06,WSW,244,0.0,0.0,62,0.00,,---,0.63,VWS V14.01,2013-04-13 02:09:00,
2013-04-12 22:14:00,75.9,62.0,30.06,SW,232,0.0,0.0,62,0.00,,---,0.63,VWS V14.01,2013-04-13 02:14:00,
2013-04-12 22:19:00,75.9,62.0,30.06,SW,232,0.0,0.0,62,0.00,,---,0.63,VWS V14.01,2013-04-13 02:19:00,
2013-04-12 22:24:00,75.2,63.5,30.06,SW,232,0.0,0.0,67,0.00,,---,0.63,VWS V14.01,2013-04-13 02:24:00,
2013-04-12 22:30:00,74.8,64.0,30.06,SW,232,0.0,0.0,69,0.00,,---,0.63,VWS V14.01,2013-04-13 02:30:00,
2013-04-12 22:35:00,74.8,64.8,30.06,South,174,0.0,0.0,71,0.00,,---,0.63,VWS V14.01,2013-04-13 02:35:00,
2013-04-12 22:40:00,74.8,65.2,30.06,South,175,0.0,0.0,72,0.00,,---,0.63,VWS V14.01,2013-04-13 02:40:00,
2013-04-12 22:45:00,74.8,65.2,30.06,South,175,0.0,0.0,72,0.00,,---,0.63,VWS V14.01,2013-04-13 02:45:00,
2013-04-12 22:50:00,74.8,66.0,30.06,South,175,0.0,0.0,74,0.00,,---,0.63,VWS V14.01,2013-04-13 02:50:00,
2013-04-12 22:56:00,74.5,65.7,30.06,South,175,0.0,0.0,74,0.00,,---,0.63,VWS V14.01,2013-04-13 02:56:00,
2013-04-12 23:01:00,74.5,65.7,30.06,South,174,0.0,0.0,74,0.00,,---,0.63,VWS V14.01,2013-04-13 03:01:00,
2013-04-12 23:06:00,74.3,65.9,30.06,South,175,0.0,0.0,75,0.00,,---,0.63,VWS V14.01,2013-04-13 03:06:00,
2013-04-12 23:11:00,74.5,66.8,30.06,South,181,0.0,0.0,77,0.00,,---,0.63,VWS V14.01,2013-04-13 03:11:00,
2013-04-12 23:16:00,74.7,67.3,30.06,SSE,167,0.0,0.0,78,0.00,,---,0.63,VWS V14.01,2013-04-13 03:16:00,
2013-04-12 23:22:00,74.7,67.3,30.06,South,173,0.0,0.0,78,0.00,,---,0.63,VWS V14.01,2013-04-13 03:22:00,
2013-04-12 23:27:00,74.7,67.3,30.06,South,177,0.0,0.0,78,0.00,,---,0.63,VWS V14.01,2013-04-13 03:27:00,
2013-04-12 23:32:00,74.7,67.3,30.06,South,177,0.0,0.0,78,0.00,,---,0.63,VWS V14.01,2013-04-13 03:32:00,
2013-04-12 23:37:00,74.5,67.2,30.06,South,177,0.0,0.0,78,0.00,,---,0.63,VWS V14.01,2013-04-13 03:37:00,
2013-04-12 23:42:00,74.1,66.8,30.06,South,177,0.0,0.0,78,0.00,,---,0.63,VWS V14.01,2013-04-13 03:42:00,
2013-04-12 23:48:00,74.1,66.8,30.06,South,177,0.0,0.0,78,0.00,,---,0.63,VWS V14.01,2013-04-13 03:48:00,
2013-04-12 23:53:00,74.1,67.2,30.06,South,173,0.0,0.0,79,0.00,,---,0.63,VWS V14.01,2013-04-13 03:53:00,
2013-04-12 23:58:00,73.9,67.0,30.06,South,181,0.0,0.0,79,0.00,,---,0.63,VWS V14.01,2013-04-13 03:58:00,